sensor_id;sensor_type;location;lat;lon;timestamp;P1;durP1;ratioP1;P2;durP2;ratioP2
1054;SDS011;516;51.482;7.120;2022-12-11T00:03:59;59.60;;;26.77;;
1054;SDS011;516;51.482;7.120;2022-12-11T00:09:47;60.23;;;25.70;;
1054;SDS011;516;51.482;7.120;2022-12-11T00:15:36;68.03;;;25.77;;
1054;SDS011;516;51.482;7.120;2022-12-11T00:21:24;65.23;;;27.63;;
1054;SDS011;516;51.482;7.120;2022-12-11T00:27:12;71.73;;;29.27;;
1054;SDS011;516;51.482;7.120;2022-12-11T00:33:00;59.27;;;27.80;;
1054;SDS011;516;51.482;7.120;2022-12-11T00:48:41;80.33;;;29.87;;
1054;SDS011;516;51.482;7.120;2022-12-11T00:54:29;74.77;;;28.20;;
1054;SDS011;516;51.482;7.120;2022-12-11T01:00:17;66.23;;;24.20;;
1054;SDS011;516;51.482;7.120;2022-12-11T01:06:05;76.67;;;30.70;;
1054;SDS011;516;51.482;7.120;2022-12-11T01:11:53;67.87;;;29.70;;
1054;SDS011;516;51.482;7.120;2022-12-11T01:17:41;86.57;;;29.53;;
1054;SDS011;516;51.482;7.120;2022-12-11T01:23:28;82.60;;;29.20;;
1054;SDS011;516;51.482;7.120;2022-12-11T01:29:16;76.70;;;28.60;;
1054;SDS011;516;51.482;7.120;2022-12-11T01:35:04;88.63;;;29.23;;
1054;SDS011;516;51.482;7.120;2022-12-11T01:50:32;98.00;;;32.07;;
1054;SDS011;516;51.482;7.120;2022-12-11T01:56:22;76.13;;;28.40;;
1054;SDS011;516;51.482;7.120;2022-12-11T02:02:20;92.83;;;31.63;;
1054;SDS011;516;51.482;7.120;2022-12-11T02:08:30;92.13;;;30.43;;
1054;SDS011;516;51.482;7.120;2022-12-11T02:20:24;94.73;;;29.67;;
1054;SDS011;516;51.482;7.120;2022-12-11T02:32:54;71.33;;;29.47;;
1054;SDS011;516;51.482;7.120;2022-12-11T02:38:44;80.83;;;28.10;;
1054;SDS011;516;51.482;7.120;2022-12-11T02:44:36;66.37;;;27.43;;
1054;SDS011;516;51.482;7.120;2022-12-11T02:50:25;60.97;;;27.00;;
1054;SDS011;516;51.482;7.120;2022-12-11T02:56:15;69.97;;;27.93;;
1054;SDS011;516;51.482;7.120;2022-12-11T03:02:06;55.07;;;24.30;;
1054;SDS011;516;51.482;7.120;2022-12-11T03:07:55;54.73;;;24.97;;
1054;SDS011;516;51.482;7.120;2022-12-11T03:26:17;64.97;;;26.40;;
1054;SDS011;516;51.482;7.120;2022-12-11T03:32:07;70.07;;;26.80;;
1054;SDS011;516;51.482;7.120;2022-12-11T03:37:59;69.63;;;26.80;;
1054;SDS011;516;51.482;7.120;2022-12-11T03:43:52;71.67;;;30.40;;
1054;SDS011;516;51.482;7.120;2022-12-11T03:49:44;69.13;;;25.23;;
1054;SDS011;516;51.482;7.120;2022-12-11T03:55:34;63.27;;;26.40;;
1054;SDS011;516;51.482;7.120;2022-12-11T04:01:23;44.57;;;21.00;;
1054;SDS011;516;51.482;7.120;2022-12-11T04:07:11;66.70;;;28.40;;
1054;SDS011;516;51.482;7.120;2022-12-11T04:12:59;69.10;;;28.83;;
1054;SDS011;516;51.482;7.120;2022-12-11T04:18:47;57.20;;;25.97;;
1054;SDS011;516;51.482;7.120;2022-12-11T04:24:53;62.73;;;24.63;;
1054;SDS011;516;51.482;7.120;2022-12-11T04:30:46;60.90;;;27.20;;
1054;SDS011;516;51.482;7.120;2022-12-11T04:36:35;55.87;;;27.93;;
1054;SDS011;516;51.482;7.120;2022-12-11T04:42:04;59.27;;;26.63;;
1054;SDS011;516;51.482;7.120;2022-12-11T04:47:52;54.47;;;22.90;;
1054;SDS011;516;51.482;7.120;2022-12-11T04:53:39;63.83;;;25.43;;
1054;SDS011;516;51.482;7.120;2022-12-11T04:59:27;53.50;;;22.10;;
1054;SDS011;516;51.482;7.120;2022-12-11T05:05:15;54.37;;;22.27;;
1054;SDS011;516;51.482;7.120;2022-12-11T05:11:05;54.83;;;26.37;;
1054;SDS011;516;51.482;7.120;2022-12-11T05:16:54;60.30;;;27.83;;
1054;SDS011;516;51.482;7.120;2022-12-11T05:22:42;46.90;;;22.00;;
1054;SDS011;516;51.482;7.120;2022-12-11T05:28:30;55.43;;;26.80;;
1054;SDS011;516;51.482;7.120;2022-12-11T05:34:19;58.00;;;26.20;;
1054;SDS011;516;51.482;7.120;2022-12-11T05:49:54;54.10;;;25.27;;
1054;SDS011;516;51.482;7.120;2022-12-11T05:55:42;56.33;;;25.20;;
1054;SDS011;516;51.482;7.120;2022-12-11T06:01:32;48.40;;;25.00;;
1054;SDS011;516;51.482;7.120;2022-12-11T06:07:21;50.30;;;25.10;;
1054;SDS011;516;51.482;7.120;2022-12-11T06:13:09;50.23;;;24.40;;
1054;SDS011;516;51.482;7.120;2022-12-11T06:18:56;50.57;;;24.37;;
1054;SDS011;516;51.482;7.120;2022-12-11T06:24:44;48.83;;;21.83;;
1054;SDS011;516;51.482;7.120;2022-12-11T06:30:32;46.53;;;22.30;;
1054;SDS011;516;51.482;7.120;2022-12-11T06:36:20;43.23;;;22.63;;
1054;SDS011;516;51.482;7.120;2022-12-11T06:42:05;45.33;;;22.60;;
1054;SDS011;516;51.482;7.120;2022-12-11T06:47:53;51.23;;;25.37;;
1054;SDS011;516;51.482;7.120;2022-12-11T06:53:40;49.13;;;23.20;;
1054;SDS011;516;51.482;7.120;2022-12-11T06:59:28;37.73;;;21.60;;
1054;SDS011;516;51.482;7.120;2022-12-11T07:05:16;50.43;;;21.50;;
1054;SDS011;516;51.482;7.120;2022-12-11T07:11:08;44.33;;;24.83;;
1054;SDS011;516;51.482;7.120;2022-12-11T07:16:57;45.37;;;22.57;;
1054;SDS011;516;51.482;7.120;2022-12-11T07:22:45;56.07;;;25.03;;
1054;SDS011;516;51.482;7.120;2022-12-11T07:28:33;52.00;;;25.70;;
1054;SDS011;516;51.482;7.120;2022-12-11T07:34:21;47.13;;;26.30;;
1054;SDS011;516;51.482;7.120;2022-12-11T07:50:02;51.93;;;25.50;;
1054;SDS011;516;51.482;7.120;2022-12-11T07:55:50;47.10;;;22.63;;
1054;SDS011;516;51.482;7.120;2022-12-11T08:01:38;46.83;;;21.20;;
1054;SDS011;516;51.482;7.120;2022-12-11T08:07:26;41.30;;;21.90;;
1054;SDS011;516;51.482;7.120;2022-12-11T08:13:14;40.23;;;20.50;;
1054;SDS011;516;51.482;7.120;2022-12-11T08:19:01;56.23;;;24.57;;
1054;SDS011;516;51.482;7.120;2022-12-11T08:24:49;52.63;;;26.43;;
1054;SDS011;516;51.482;7.120;2022-12-11T08:30:37;47.57;;;24.53;;
1054;SDS011;516;51.482;7.120;2022-12-11T08:36:26;56.17;;;24.20;;
1054;SDS011;516;51.482;7.120;2022-12-11T08:42:24;51.43;;;25.47;;
1054;SDS011;516;51.482;7.120;2022-12-11T08:48:11;54.57;;;24.67;;
1054;SDS011;516;51.482;7.120;2022-12-11T08:53:59;58.00;;;27.50;;
1054;SDS011;516;51.482;7.120;2022-12-11T08:59:46;51.63;;;25.47;;
1054;SDS011;516;51.482;7.120;2022-12-11T09:05:33;59.83;;;28.13;;
1054;SDS011;516;51.482;7.120;2022-12-11T09:11:22;47.40;;;23.10;;
1054;SDS011;516;51.482;7.120;2022-12-11T09:17:10;57.93;;;29.23;;
1054;SDS011;516;51.482;7.120;2022-12-11T09:22:58;55.23;;;27.50;;
1054;SDS011;516;51.482;7.120;2022-12-11T09:28:47;51.60;;;27.77;;
1054;SDS011;516;51.482;7.120;2022-12-11T09:34:37;44.20;;;24.07;;
1054;SDS011;516;51.482;7.120;2022-12-11T09:50:09;52.47;;;26.70;;
1054;SDS011;516;51.482;7.120;2022-12-11T10:03:02;48.90;;;25.90;;
1054;SDS011;516;51.482;7.120;2022-12-11T10:09:34;56.63;;;26.63;;
1054;SDS011;516;51.482;7.120;2022-12-11T10:19:04;48.37;;;26.97;;
1054;SDS011;516;51.482;7.120;2022-12-11T10:24:56;58.60;;;29.67;;
1054;SDS011;516;51.482;7.120;2022-12-11T10:31:04;52.90;;;28.20;;
1054;SDS011;516;51.482;7.120;2022-12-11T10:44:13;57.97;;;27.30;;
1054;SDS011;516;51.482;7.120;2022-12-11T10:50:03;48.53;;;25.37;;
1054;SDS011;516;51.482;7.120;2022-12-11T10:55:50;59.57;;;25.60;;
1054;SDS011;516;51.482;7.120;2022-12-11T11:01:38;48.27;;;23.27;;
1054;SDS011;516;51.482;7.120;2022-12-11T11:07:49;57.13;;;26.03;;
1054;SDS011;516;51.482;7.120;2022-12-11T11:13:37;69.30;;;26.50;;
1054;SDS011;516;51.482;7.120;2022-12-11T11:19:34;39.33;;;20.80;;
1054;SDS011;516;51.482;7.120;2022-12-11T11:25:23;43.73;;;20.90;;
1054;SDS011;516;51.482;7.120;2022-12-11T11:31:14;43.43;;;21.20;;
1054;SDS011;516;51.482;7.120;2022-12-11T11:37:14;40.33;;;18.30;;
1054;SDS011;516;51.482;7.120;2022-12-11T11:47:16;39.40;;;20.70;;
1054;SDS011;516;51.482;7.120;2022-12-11T11:53:32;49.97;;;23.30;;
1054;SDS011;516;51.482;7.120;2022-12-11T11:59:29;49.90;;;24.10;;
1054;SDS011;516;51.482;7.120;2022-12-11T12:09:19;37.13;;;22.10;;
1054;SDS011;516;51.482;7.120;2022-12-11T12:15:50;47.43;;;23.03;;
1054;SDS011;516;51.482;7.120;2022-12-11T12:26:16;44.73;;;21.27;;
1054;SDS011;516;51.482;7.120;2022-12-11T12:52:09;37.00;;;21.37;;
1054;SDS011;516;51.482;7.120;2022-12-11T12:58:40;33.33;;;20.40;;
1054;SDS011;516;51.482;7.120;2022-12-11T13:10:24;36.23;;;20.60;;
1054;SDS011;516;51.482;7.120;2022-12-11T13:16:51;31.40;;;17.97;;
1054;SDS011;516;51.482;7.120;2022-12-11T13:23:14;36.23;;;20.03;;
1054;SDS011;516;51.482;7.120;2022-12-11T13:29:03;29.27;;;18.37;;
1054;SDS011;516;51.482;7.120;2022-12-11T13:34:58;32.07;;;19.50;;
1054;SDS011;516;51.482;7.120;2022-12-11T13:44:15;31.37;;;19.40;;
1054;SDS011;516;51.482;7.120;2022-12-11T13:50:30;36.40;;;20.30;;
1054;SDS011;516;51.482;7.120;2022-12-11T13:56:19;30.10;;;19.10;;
1054;SDS011;516;51.482;7.120;2022-12-11T14:08:52;35.27;;;21.07;;
1054;SDS011;516;51.482;7.120;2022-12-11T14:14:42;29.70;;;19.13;;
1054;SDS011;516;51.482;7.120;2022-12-11T14:20:34;33.30;;;17.47;;
1054;SDS011;516;51.482;7.120;2022-12-11T14:26:22;28.87;;;17.70;;
1054;SDS011;516;51.482;7.120;2022-12-11T14:32:15;29.50;;;17.53;;
1054;SDS011;516;51.482;7.120;2022-12-11T14:38:45;35.33;;;20.63;;
1054;SDS011;516;51.482;7.120;2022-12-11T14:50:40;37.60;;;19.70;;
1054;SDS011;516;51.482;7.120;2022-12-11T14:56:52;34.60;;;20.00;;
1054;SDS011;516;51.482;7.120;2022-12-11T15:02:39;42.30;;;21.67;;
1054;SDS011;516;51.482;7.120;2022-12-11T15:08:28;37.87;;;21.63;;
1054;SDS011;516;51.482;7.120;2022-12-11T15:14:20;32.27;;;20.97;;
1054;SDS011;516;51.482;7.120;2022-12-11T15:20:09;37.10;;;22.30;;
1054;SDS011;516;51.482;7.120;2022-12-11T15:26:44;43.07;;;23.17;;
1054;SDS011;516;51.482;7.120;2022-12-11T15:32:33;31.60;;;20.70;;
1054;SDS011;516;51.482;7.120;2022-12-11T15:38:25;38.80;;;22.13;;
1054;SDS011;516;51.482;7.120;2022-12-11T15:47:53;46.57;;;23.77;;
1054;SDS011;516;51.482;7.120;2022-12-11T15:53:22;37.93;;;22.53;;
1054;SDS011;516;51.482;7.120;2022-12-11T15:59:10;40.17;;;23.50;;
1054;SDS011;516;51.482;7.120;2022-12-11T16:04:58;56.13;;;31.40;;
1054;SDS011;516;51.482;7.120;2022-12-11T16:10:46;36.53;;;20.67;;
1054;SDS011;516;51.482;7.120;2022-12-11T16:16:34;37.70;;;23.47;;
1054;SDS011;516;51.482;7.120;2022-12-11T16:22:22;40.37;;;23.40;;
1054;SDS011;516;51.482;7.120;2022-12-11T16:28:10;43.23;;;23.20;;
1054;SDS011;516;51.482;7.120;2022-12-11T16:34:00;42.80;;;23.87;;
1054;SDS011;516;51.482;7.120;2022-12-11T16:39:47;46.57;;;26.80;;
1054;SDS011;516;51.482;7.120;2022-12-11T16:45:35;37.47;;;22.73;;
1054;SDS011;516;51.482;7.120;2022-12-11T16:51:23;36.13;;;23.43;;
1054;SDS011;516;51.482;7.120;2022-12-11T16:57:10;57.33;;;30.83;;
1054;SDS011;516;51.482;7.120;2022-12-11T17:02:58;36.63;;;23.73;;
1054;SDS011;516;51.482;7.120;2022-12-11T17:08:46;41.37;;;24.67;;
1054;SDS011;516;51.482;7.120;2022-12-11T17:14:34;40.90;;;24.40;;
1054;SDS011;516;51.482;7.120;2022-12-11T17:20:22;46.83;;;27.53;;
1054;SDS011;516;51.482;7.120;2022-12-11T17:26:10;45.70;;;26.33;;
1054;SDS011;516;51.482;7.120;2022-12-11T17:31:58;43.00;;;24.80;;
1054;SDS011;516;51.482;7.120;2022-12-11T17:37:45;49.70;;;25.90;;
1054;SDS011;516;51.482;7.120;2022-12-11T17:47:02;42.40;;;26.90;;
1054;SDS011;516;51.482;7.120;2022-12-11T17:52:49;36.33;;;24.23;;
1054;SDS011;516;51.482;7.120;2022-12-11T17:58:38;42.07;;;26.37;;
1054;SDS011;516;51.482;7.120;2022-12-11T18:04:26;39.00;;;26.70;;
1054;SDS011;516;51.482;7.120;2022-12-11T18:06:52;39.70;;;27.33;;
1054;SDS011;516;51.482;7.120;2022-12-11T18:09:17;45.10;;;29.57;;
1054;SDS011;516;51.482;7.120;2022-12-11T18:15:05;56.93;;;29.07;;
1054;SDS011;516;51.482;7.120;2022-12-11T18:20:53;45.67;;;28.70;;
1054;SDS011;516;51.482;7.120;2022-12-11T18:26:41;48.63;;;30.73;;
1054;SDS011;516;51.482;7.120;2022-12-11T18:32:29;46.57;;;28.37;;
1054;SDS011;516;51.482;7.120;2022-12-11T18:38:17;39.93;;;25.80;;
1054;SDS011;516;51.482;7.120;2022-12-11T18:47:33;46.23;;;31.40;;
1054;SDS011;516;51.482;7.120;2022-12-11T18:53:20;46.57;;;28.37;;
1054;SDS011;516;51.482;7.120;2022-12-11T18:59:09;39.93;;;26.90;;
1054;SDS011;516;51.482;7.120;2022-12-11T19:04:59;49.77;;;28.40;;
1054;SDS011;516;51.482;7.120;2022-12-11T19:10:46;47.20;;;27.13;;
1054;SDS011;516;51.482;7.120;2022-12-11T19:16:35;48.20;;;27.17;;
1054;SDS011;516;51.482;7.120;2022-12-11T19:22:27;45.27;;;27.77;;
1054;SDS011;516;51.482;7.120;2022-12-11T19:28:15;42.43;;;25.33;;
1054;SDS011;516;51.482;7.120;2022-12-11T19:34:02;37.80;;;26.03;;
1054;SDS011;516;51.482;7.120;2022-12-11T19:39:49;44.40;;;25.80;;
1054;SDS011;516;51.482;7.120;2022-12-11T19:45:27;48.83;;;28.17;;
1054;SDS011;516;51.482;7.120;2022-12-11T19:51:16;46.47;;;25.97;;
1054;SDS011;516;51.482;7.120;2022-12-11T19:57:09;46.23;;;27.47;;
1054;SDS011;516;51.482;7.120;2022-12-11T20:02:57;53.83;;;27.50;;
1054;SDS011;516;51.482;7.120;2022-12-11T20:08:44;51.43;;;28.33;;
1054;SDS011;516;51.482;7.120;2022-12-11T20:14:32;54.73;;;30.37;;
1054;SDS011;516;51.482;7.120;2022-12-11T20:20:20;45.70;;;30.90;;
1054;SDS011;516;51.482;7.120;2022-12-11T20:26:13;43.13;;;25.87;;
1054;SDS011;516;51.482;7.120;2022-12-11T20:32:03;48.73;;;29.27;;
1054;SDS011;516;51.482;7.120;2022-12-11T20:37:51;45.17;;;27.67;;
1054;SDS011;516;51.482;7.120;2022-12-11T20:53:20;48.90;;;29.60;;
1054;SDS011;516;51.482;7.120;2022-12-11T20:59:09;42.40;;;24.93;;
1054;SDS011;516;51.482;7.120;2022-12-11T21:04:57;40.33;;;27.20;;
1054;SDS011;516;51.482;7.120;2022-12-11T21:10:44;41.37;;;25.90;;
1054;SDS011;516;51.482;7.120;2022-12-11T21:16:33;40.40;;;25.63;;
1054;SDS011;516;51.482;7.120;2022-12-11T21:22:22;51.27;;;27.00;;
1054;SDS011;516;51.482;7.120;2022-12-11T21:28:10;44.00;;;26.27;;
1054;SDS011;516;51.482;7.120;2022-12-11T21:33:59;44.53;;;27.57;;
1054;SDS011;516;51.482;7.120;2022-12-11T21:39:46;41.33;;;26.93;;
1054;SDS011;516;51.482;7.120;2022-12-11T21:45:27;53.63;;;28.33;;
1054;SDS011;516;51.482;7.120;2022-12-11T21:51:03;47.90;;;27.13;;
1054;SDS011;516;51.482;7.120;2022-12-11T21:57:28;40.57;;;25.87;;
1054;SDS011;516;51.482;7.120;2022-12-11T22:03:16;48.53;;;27.23;;
1054;SDS011;516;51.482;7.120;2022-12-11T22:09:04;48.43;;;27.17;;
1054;SDS011;516;51.482;7.120;2022-12-11T22:14:52;41.73;;;26.40;;
1054;SDS011;516;51.482;7.120;2022-12-11T22:20:40;47.13;;;28.73;;
1054;SDS011;516;51.482;7.120;2022-12-11T22:26:28;47.83;;;26.70;;
1054;SDS011;516;51.482;7.120;2022-12-11T22:32:16;44.10;;;25.77;;
1054;SDS011;516;51.482;7.120;2022-12-11T22:38:04;48.20;;;27.90;;
1054;SDS011;516;51.482;7.120;2022-12-11T22:47:35;48.77;;;29.50;;
1054;SDS011;516;51.482;7.120;2022-12-11T22:53:23;44.77;;;29.30;;
1054;SDS011;516;51.482;7.120;2022-12-11T22:59:11;50.70;;;28.80;;
1054;SDS011;516;51.482;7.120;2022-12-11T23:04:58;48.83;;;29.43;;
1054;SDS011;516;51.482;7.120;2022-12-11T23:10:47;47.77;;;28.57;;
1054;SDS011;516;51.482;7.120;2022-12-11T23:16:34;47.30;;;28.93;;
1054;SDS011;516;51.482;7.120;2022-12-11T23:22:21;49.63;;;30.93;;
1054;SDS011;516;51.482;7.120;2022-12-11T23:28:10;48.00;;;28.63;;
1054;SDS011;516;51.482;7.120;2022-12-11T23:33:57;47.93;;;28.60;;
1054;SDS011;516;51.482;7.120;2022-12-11T23:39:45;47.57;;;27.10;;
1054;SDS011;516;51.482;7.120;2022-12-11T23:45:29;50.27;;;28.03;;
1054;SDS011;516;51.482;7.120;2022-12-11T23:47:54;52.57;;;30.50;;
1054;SDS011;516;51.482;7.120;2022-12-11T23:50:23;49.20;;;28.40;;
1054;SDS011;516;51.482;7.120;2022-12-11T23:56:30;49.37;;;29.57;;
